Time;durP1;ratioP1;P1;durP2;ratioP2;P2;SDS_P1;SDS_P2;PMS_P1;PMS_P2;Temp;Humidity;BMP_temperature;BMP_pressure;BME280_temperature;BME280_humidity;BME280_pressure;Samples;Min_cycle;Max_cycle;Signal;HPM_P1;HPM_P2
2022/08/26 00:01:50;;;;;;;24.25;14.77;;;;;;;;;;5018904;28;20057;-83
2022/08/26 00:04:18;;;;;;;26.88;15.25;;;;;;;;;;5035438;28;20088;-81
2022/08/26 00:06:45;;;;;;;22.85;15.23;;;;;;;;;;5017730;28;20045;-82
2022/08/26 00:09:14;;;;;;;19.92;14.85;;;;;;;;;;5018447;28;20435;-83
2022/08/26 00:11:43;;;;;;;24.95;15.48;;;;;;;;;;5018039;28;20164;-83
2022/08/26 00:14:12;;;;;;;24.42;15.15;;;;;;;;;;5018038;28;20041;-82
2022/08/26 00:16:40;;;;;;;26.77;16.48;;;;;;;;;;5017570;28;20046;-83
2022/08/26 00:19:14;;;;;;;27.23;16.13;;;;;;;;;;5018274;28;20084;-83
2022/08/26 00:21:42;;;;;;;23.77;16.48;;;;;;;;;;5034888;28;20077;-81
2022/08/26 00:24:09;;;;;;;29.08;17.63;;;;;;;;;;5016924;28;20056;-83
2022/08/26 00:26:37;;;;;;;26.20;16.35;;;;;;;;;;5017407;28;20072;-82
2022/08/26 00:29:07;;;;;;;21.33;15.60;;;;;;;;;;5017146;28;20057;-81
2022/08/26 00:31:35;;;;;;;26.52;16.63;;;;;;;;;;5016652;28;20500;-80
2022/08/26 00:34:03;;;;;;;28.60;16.15;;;;;;;;;;5020667;28;20135;-83
2022/08/26 00:36:31;;;;;;;25.10;15.45;;;;;;;;;;5020850;28;20049;-83
2022/08/26 00:38:58;;;;;;;26.35;16.65;;;;;;;;;;5021103;28;20100;-83
2022/08/26 00:41:25;;;;;;;22.83;15.18;;;;;;;;;;5020813;28;20053;-83
2022/08/26 00:43:53;;;;;;;23.17;15.75;;;;;;;;;;5037867;28;20049;-81
2022/08/26 00:46:22;;;;;;;27.40;16.73;;;;;;;;;;5019697;28;20504;-83
2022/08/26 00:48:52;;;;;;;25.83;15.65;;;;;;;;;;5019559;28;20053;-83
2022/08/26 00:51:21;;;;;;;23.65;15.30;;;;;;;;;;5036786;28;20053;-83
2022/08/26 00:53:51;;;;;;;29.50;16.77;;;;;;;;;;5036633;28;20073;-83
2022/08/26 00:56:28;;;;;;;26.77;16.95;;;;;;;;;;5036646;28;20045;-83
2022/08/26 00:58:56;;;;;;;24.40;16.25;;;;;;;;;;5018654;28;21686;-81
2022/08/26 01:01:26;;;;;;;19.70;16.00;;;;;;;;;;5035896;28;20046;-83
2022/08/26 01:03:56;;;;;;;25.38;17.20;;;;;;;;;;5018495;28;20485;-83
2022/08/26 01:06:24;;;;;;;25.65;16.27;;;;;;;;;;5035379;28;20077;-83
2022/08/26 01:08:52;;;;;;;29.08;17.58;;;;;;;;;;5017097;28;20049;-84
2022/08/26 01:11:19;;;;;;;27.85;16.88;;;;;;;;;;5017735;28;20077;-82
2022/08/26 01:13:48;;;;;;;21.90;16.73;;;;;;;;;;5034868;28;20045;-83
2022/08/26 01:16:15;;;;;;;26.63;17.48;;;;;;;;;;5017105;28;20084;-83
2022/08/26 01:18:43;;;;;;;28.13;17.27;;;;;;;;;;5017239;28;20046;-82
2022/08/26 01:21:17;;;;;;;24.95;17.13;;;;;;;;;;5017253;28;20073;-82
2022/08/26 01:23:47;;;;;;;26.05;17.48;;;;;;;;;;5016687;28;20045;-83
2022/08/26 01:26:32;;;;;;;37.72;20.08;;;;;;;;;;5036534;28;20049;-81
2022/08/26 01:29:01;;;;;;;30.67;18.63;;;;;;;;;;5018218;28;20045;-83
2022/08/26 01:31:32;;;;;;;28.48;18.33;;;;;;;;;;5017355;28;20049;-83
2022/08/26 01:34:03;;;;;;;27.55;18.65;;;;;;;;;;5034770;28;20128;-82
2022/08/26 01:36:30;;;;;;;29.35;17.42;;;;;;;;;;5017190;28;20049;-82
2022/08/26 01:38:58;;;;;;;19.77;17.13;;;;;;;;;;5016821;28;20077;-83
2022/08/26 01:41:26;;;;;;;28.05;16.63;;;;;;;;;;5034644;28;20073;-82
2022/08/26 01:43:56;;;;;;;22.83;17.60;;;;;;;;;;5017120;28;20468;-83
2022/08/26 01:46:25;;;;;;;38.47;18.50;;;;;;;;;;5034226;28;20510;-81
2022/08/26 01:48:54;;;;;;;26.60;16.90;;;;;;;;;;5033425;28;20073;-83
2022/08/26 01:51:23;;;;;;;23.00;17.10;;;;;;;;;;5034270;28;20099;-82
2022/08/26 01:53:50;;;;;;;27.80;16.60;;;;;;;;;;5016233;28;20623;-83
2022/08/26 01:56:18;;;;;;;30.15;17.88;;;;;;;;;;5016625;28;20060;-83
2022/08/26 01:58:50;;;;;;;27.90;18.25;;;;;;;;;;5033717;28;20061;-82
2022/08/26 02:01:18;;;;;;;31.20;18.77;;;;;;;;;;5016125;28;20088;-82
2022/08/26 02:03:50;;;;;;;31.50;19.25;;;;;;;;;;5015989;28;20046;-82
2022/08/26 02:06:18;;;;;;;23.05;17.70;;;;;;;;;;5016571;28;20080;-83
2022/08/26 02:08:50;;;;;;;30.90;17.75;;;;;;;;;;5014786;28;20088;-83
2022/08/26 02:11:17;;;;;;;27.60;17.67;;;;;;;;;;5032367;28;20480;-80
2022/08/26 02:13:46;;;;;;;27.13;18.27;;;;;;;;;;5036181;28;20050;-83
2022/08/26 02:16:15;;;;;;;34.53;18.05;;;;;;;;;;5037868;28;20056;-84
2022/08/26 02:18:43;;;;;;;26.00;17.17;;;;;;;;;;5019411;28;20132;-84
2022/08/26 02:21:13;;;;;;;27.83;18.63;;;;;;;;;;5019683;28;20050;-83
2022/08/26 02:23:41;;;;;;;24.60;17.30;;;;;;;;;;5036515;28;20053;-82
2022/08/26 02:26:10;;;;;;;24.23;17.63;;;;;;;;;;5018854;28;20100;-83
2022/08/26 02:28:40;;;;;;;34.17;19.10;;;;;;;;;;5035992;28;20057;-83
2022/08/26 02:31:07;;;;;;;26.45;18.67;;;;;;;;;;5018245;28;20088;-84
2022/08/26 02:33:36;;;;;;;27.50;17.45;;;;;;;;;;5017171;28;20084;-83
2022/08/26 02:36:09;;;;;;;26.67;17.70;;;;;;;;;;5035621;28;20080;-82
2022/08/26 02:38:38;;;;;;;28.50;18.60;;;;;;;;;;5017261;28;20053;-80
2022/08/26 02:41:05;;;;;;;25.95;18.27;;;;;;;;;;5034723;28;20104;-83
2022/08/26 02:43:34;;;;;;;27.85;17.70;;;;;;;;;;5034347;28;20073;-83
2022/08/26 02:46:01;;;;;;;29.40;17.60;;;;;;;;;;5017024;28;20096;-83
2022/08/26 02:48:29;;;;;;;29.00;18.27;;;;;;;;;;5034073;28;20053;-83
2022/08/26 02:50:58;;;;;;;23.85;17.20;;;;;;;;;;5033964;28;20112;-83
2022/08/26 02:53:25;;;;;;;26.58;17.58;;;;;;;;;;5033767;28;20052;-83
2022/08/26 02:55:53;;;;;;;28.40;18.45;;;;;;;;;;5016281;28;20461;-83
2022/08/26 02:58:21;;;;;;;30.08;18.38;;;;;;;;;;5034141;28;20080;-82
2022/08/26 03:00:48;;;;;;;30.35;18.60;;;;;;;;;;5018872;28;20092;-83
2022/08/26 03:03:19;;;;;;;26.35;16.73;;;;;;;;;;5037138;28;20051;-82
2022/08/26 03:05:49;;;;;;;24.85;17.08;;;;;;;;;;5036540;28;20407;-81
2022/08/26 03:08:16;;;;;;;27.20;18.00;;;;;;;;;;5019403;28;20053;-84
2022/08/26 03:10:45;;;;;;;34.88;17.85;;;;;;;;;;5018795;28;20128;-82
2022/08/26 03:13:14;;;;;;;20.38;16.92;;;;;;;;;;5019161;28;20081;-83
2022/08/26 03:15:41;;;;;;;28.40;19.10;;;;;;;;;;5018845;28;20111;-82
2022/08/26 03:18:09;;;;;;;26.80;18.17;;;;;;;;;;5018876;28;20124;-83
2022/08/26 03:20:37;;;;;;;27.58;19.15;;;;;;;;;;5018479;28;20088;-83
2022/08/26 03:23:04;;;;;;;36.22;22.05;;;;;;;;;;5018367;28;20492;-82
2022/08/26 03:25:33;;;;;;;33.83;21.58;;;;;;;;;;5035862;28;20052;-83
2022/08/26 03:28:01;;;;;;;29.73;21.02;;;;;;;;;;5035928;28;20092;-82
2022/08/26 03:30:40;;;;;;;30.23;20.48;;;;;;;;;;5017981;28;20124;-83
2022/08/26 03:33:12;;;;;;;30.38;20.00;;;;;;;;;;5039794;28;20544;-82
2022/08/26 03:35:41;;;;;;;26.70;18.10;;;;;;;;;;5019639;28;20050;-83
2022/08/26 03:38:08;;;;;;;29.67;19.58;;;;;;;;;;5019496;28;20530;-82
2022/08/26 03:40:36;;;;;;;29.08;19.08;;;;;;;;;;5019171;28;20046;-82
2022/08/26 03:43:05;;;;;;;24.30;17.35;;;;;;;;;;5019441;28;20518;-81
2022/08/26 03:45:35;;;;;;;24.35;17.17;;;;;;;;;;5036496;28;20128;-83
2022/08/26 03:48:03;;;;;;;29.75;18.00;;;;;;;;;;5035091;28;20081;-82
2022/08/26 03:50:30;;;;;;;25.88;18.08;;;;;;;;;;5016487;28;20084;-82
2022/08/26 03:53:00;;;;;;;23.80;17.35;;;;;;;;;;5036570;28;20120;-84
2022/08/26 03:55:30;;;;;;;28.52;18.50;;;;;;;;;;5021831;28;20053;-83
2022/08/26 03:57:58;;;;;;;33.85;18.40;;;;;;;;;;5038338;28;20049;-81
2022/08/26 04:00:25;;;;;;;29.92;19.95;;;;;;;;;;5038205;28;20056;-83
2022/08/26 04:02:53;;;;;;;28.30;17.05;;;;;;;;;;5037826;28;20132;-83
2022/08/26 04:05:22;;;;;;;28.15;18.95;;;;;;;;;;5020079;28;20053;-83
2022/08/26 04:07:49;;;;;;;30.33;19.85;;;;;;;;;;5019790;28;20053;-83
2022/08/26 04:10:17;;;;;;;25.38;18.20;;;;;;;;;;5036643;28;20053;-83
2022/08/26 04:12:46;;;;;;;28.70;18.33;;;;;;;;;;5019368;28;20060;-83
2022/08/26 04:15:14;;;;;;;27.67;17.27;;;;;;;;;;5018329;28;20045;-82
2022/08/26 04:17:41;;;;;;;28.20;16.50;;;;;;;;;;5036005;28;20045;-81
2022/08/26 04:20:12;;;;;;;25.23;17.05;;;;;;;;;;5018908;28;20068;-83
2022/08/26 04:22:42;;;;;;;24.33;16.40;;;;;;;;;;5018419;28;20050;-82
2022/08/26 04:25:10;;;;;;;24.52;16.25;;;;;;;;;;5035642;28;20053;-84
2022/08/26 04:27:37;;;;;;;19.50;16.38;;;;;;;;;;5035395;28;20053;-82
2022/08/26 04:30:07;;;;;;;30.38;17.20;;;;;;;;;;5017418;28;20103;-83
2022/08/26 04:32:35;;;;;;;32.40;18.73;;;;;;;;;;5035447;28;20476;-81
2022/08/26 04:35:03;;;;;;;30.08;16.70;;;;;;;;;;5016726;28;20091;-82
2022/08/26 04:37:32;;;;;;;29.40;17.35;;;;;;;;;;5016947;28;20095;-84
2022/08/26 04:39:59;;;;;;;24.90;16.23;;;;;;;;;;5017174;28;20474;-82
2022/08/26 04:42:28;;;;;;;25.15;17.77;;;;;;;;;;5016559;28;20049;-84
2022/08/26 04:44:55;;;;;;;29.60;16.83;;;;;;;;;;5016681;28;20057;-83
2022/08/26 04:47:23;;;;;;;27.92;17.52;;;;;;;;;;5016528;28;20049;-84
2022/08/26 04:49:57;;;;;;;27.63;18.02;;;;;;;;;;4987220;23;1028669;-89
2022/08/26 04:52:24;;;;;;;28.30;16.77;;;;;;;;;;5017358;28;20449;-91
2022/08/26 04:54:54;;;;;;;32.53;20.02;;;;;;;;;;5017304;28;20057;-92
2022/08/26 04:57:22;;;;;;;28.90;22.90;;;;;;;;;;5017229;28;20045;-92
2022/08/26 04:59:49;;;;;;;40.15;31.20;;;;;;;;;;5034575;28;20046;-92
2022/08/26 05:02:16;;;;;;;39.45;27.17;;;;;;;;;;5034311;28;20497;-91
2022/08/26 05:04:44;;;;;;;27.58;18.50;;;;;;;;;;5016936;28;20091;-93
2022/08/26 05:07:11;;;;;;;33.10;19.25;;;;;;;;;;5017111;28;20493;-92
2022/08/26 05:09:39;;;;;;;26.88;16.10;;;;;;;;;;5034276;28;20467;-91
2022/08/26 05:12:07;;;;;;;22.08;14.90;;;;;;;;;;5017189;28;20488;-92
2022/08/26 05:14:35;;;;;;;25.73;14.40;;;;;;;;;;5034239;28;20080;-91
2022/08/26 05:17:02;;;;;;;23.33;16.38;;;;;;;;;;5016838;28;20077;-91
2022/08/26 05:19:30;;;;;;;20.55;13.35;;;;;;;;;;5016615;28;20144;-91
2022/08/26 05:21:58;;;;;;;20.45;11.50;;;;;;;;;;5033475;28;20045;-92
2022/08/26 05:24:25;;;;;;;21.08;11.20;;;;;;;;;;5016749;28;20084;-91
2022/08/26 05:26:53;;;;;;;20.05;10.93;;;;;;;;;;5034207;28;20049;-92
2022/08/26 05:29:22;;;;;;;22.13;11.00;;;;;;;;;;5017244;28;20525;-92
2022/08/26 05:31:50;;;;;;;21.20;10.15;;;;;;;;;;5016882;28;20069;-91
2022/08/26 05:34:18;;;;;;;23.85;10.07;;;;;;;;;;5016546;28;20132;-91
2022/08/26 05:36:46;;;;;;;20.75;9.65;;;;;;;;;;5016836;28;20100;-91
2022/08/26 05:39:13;;;;;;;20.33;9.63;;;;;;;;;;5016594;28;20076;-92
2022/08/26 05:41:41;;;;;;;21.90;9.68;;;;;;;;;;5016881;28;20128;-92
2022/08/26 05:44:12;;;;;;;26.23;10.52;;;;;;;;;;5017110;28;20119;-93
2022/08/26 05:46:40;;;;;;;23.70;10.90;;;;;;;;;;5017003;28;20417;-90
2022/08/26 05:49:10;;;;;;;21.23;9.80;;;;;;;;;;5016665;28;20140;-91
2022/08/26 05:51:39;;;;;;;25.35;9.98;;;;;;;;;;5016738;28;20057;-91
2022/08/26 05:54:06;;;;;;;20.73;9.60;;;;;;;;;;5016385;28;20056;-92
2022/08/26 05:56:36;;;;;;;17.35;8.50;;;;;;;;;;5016757;28;20057;-92
2022/08/26 05:59:04;;;;;;;19.55;8.30;;;;;;;;;;5016413;28;20108;-92
2022/08/26 06:01:32;;;;;;;26.40;9.20;;;;;;;;;;5016498;28;20057;-92
2022/08/26 06:04:02;;;;;;;18.98;9.02;;;;;;;;;;5016935;28;20050;-92
2022/08/26 06:06:30;;;;;;;22.83;9.32;;;;;;;;;;5016249;28;20137;-92
2022/08/26 06:08:58;;;;;;;27.60;9.35;;;;;;;;;;5016239;28;20046;-92
2022/08/26 06:11:26;;;;;;;29.20;9.85;;;;;;;;;;5016542;28;20068;-92
2022/08/26 06:13:54;;;;;;;31.33;10.57;;;;;;;;;;5016134;28;20137;-92
2022/08/26 06:16:26;;;;;;;33.58;10.52;;;;;;;;;;5017038;28;20045;-92
2022/08/26 06:18:53;;;;;;;34.58;10.50;;;;;;;;;;5016292;28;20081;-92
2022/08/26 06:21:24;;;;;;;28.85;9.43;;;;;;;;;;5016411;28;20045;-91
2022/08/26 06:26:38;;;;;;;30.40;11.55;;;;;;;;;;5033737;28;20096;-92
2022/08/26 06:29:09;;;;;;;43.33;11.25;;;;;;;;;;5017440;28;20053;-92
2022/08/26 06:31:36;;;;;;;34.25;11.30;;;;;;;;;;5016444;28;20049;-95
2022/08/26 06:34:06;;;;;;;26.48;10.57;;;;;;;;;;5019057;28;20133;-93
2022/08/26 06:36:38;;;;;;;39.08;11.65;;;;;;;;;;5020531;28;20057;-93
2022/08/26 06:39:08;;;;;;;28.15;11.80;;;;;;;;;;5020027;28;20073;-92
2022/08/26 06:41:36;;;;;;;30.25;10.77;;;;;;;;;;5020590;28;20053;-95
2022/08/26 06:44:09;;;;;;;35.88;11.68;;;;;;;;;;5020664;28;20053;-92
2022/08/26 06:46:36;;;;;;;39.65;11.80;;;;;;;;;;5019932;28;20053;-93
2022/08/26 06:49:04;;;;;;;30.88;11.25;;;;;;;;;;5019672;28;20104;-93
2022/08/26 06:51:33;;;;;;;25.65;10.57;;;;;;;;;;5019740;28;20101;-93
2022/08/26 06:54:01;;;;;;;22.73;10.32;;;;;;;;;;5019718;28;20054;-93
2022/08/26 06:56:32;;;;;;;31.23;11.82;;;;;;;;;;5019892;28;20120;-92
2022/08/26 06:58:59;;;;;;;25.30;11.13;;;;;;;;;;5020151;28;20073;-93
2022/08/26 07:01:27;;;;;;;35.83;12.98;;;;;;;;;;5019576;28;20053;-94
2022/08/26 07:03:57;;;;;;;30.33;11.07;;;;;;;;;;5019431;28;20049;-92
2022/08/26 07:06:25;;;;;;;22.13;10.13;;;;;;;;;;5019637;28;20148;-93
2022/08/26 07:08:53;;;;;;;28.08;10.65;;;;;;;;;;5019563;28;20064;-93
2022/08/26 07:11:20;;;;;;;25.65;10.35;;;;;;;;;;5019383;28;20049;-92
2022/08/26 07:13:50;;;;;;;28.15;11.90;;;;;;;;;;5019880;28;20107;-92
2022/08/26 07:16:17;;;;;;;26.35;10.80;;;;;;;;;;5018980;28;20049;-91
2022/08/26 07:18:45;;;;;;;33.55;10.32;;;;;;;;;;5019075;28;20049;-92
2022/08/26 07:21:14;;;;;;;24.30;10.18;;;;;;;;;;5019326;28;20081;-91
2022/08/26 07:23:41;;;;;;;23.58;10.18;;;;;;;;;;5019054;28;20137;-92
2022/08/26 07:26:11;;;;;;;19.65;9.75;;;;;;;;;;5019002;28;20041;-92
2022/08/26 07:28:38;;;;;;;29.67;10.02;;;;;;;;;;5019064;28;20088;-92
2022/08/26 07:31:07;;;;;;;20.30;8.73;;;;;;;;;;5018891;28;20075;-92
2022/08/26 07:33:36;;;;;;;31.35;10.48;;;;;;;;;;5018970;28;20096;-92
2022/08/26 07:36:05;;;;;;;27.80;10.25;;;;;;;;;;5018812;28;20049;-91
2022/08/26 07:38:33;;;;;;;31.73;11.48;;;;;;;;;;5018896;28;20049;-92
2022/08/26 07:41:03;;;;;;;29.65;10.85;;;;;;;;;;5018752;28;20132;-93
2022/08/26 07:43:30;;;;;;;27.02;11.27;;;;;;;;;;5018564;28;20076;-91
2022/08/26 07:45:57;;;;;;;28.58;11.38;;;;;;;;;;5018050;28;20153;-92
2022/08/26 07:48:24;;;;;;;31.10;10.38;;;;;;;;;;5018593;28;20084;-93
2022/08/26 07:50:52;;;;;;;36.42;11.18;;;;;;;;;;5014982;28;20079;-92
2022/08/26 07:53:20;;;;;;;33.35;10.63;;;;;;;;;;4999018;28;20494;-92
2022/08/26 07:55:50;;;;;;;35.97;12.52;;;;;;;;;;4999314;28;20050;-94
2022/08/26 07:58:18;;;;;;;23.00;10.88;;;;;;;;;;4999204;28;20069;-93
2022/08/26 08:00:46;;;;;;;26.73;9.68;;;;;;;;;;4999101;28;20073;-93
2022/08/26 08:03:14;;;;;;;26.10;10.25;;;;;;;;;;4999087;28;20050;-92
2022/08/26 08:05:41;;;;;;;27.60;10.63;;;;;;;;;;4998573;28;20050;-93
2022/08/26 08:08:12;;;;;;;29.95;10.63;;;;;;;;;;4999769;28;20053;-91
2022/08/26 08:10:54;;;;;;;23.75;10.15;;;;;;;;;;5000590;28;20046;-91
2022/08/26 08:13:21;;;;;;;29.15;9.88;;;;;;;;;;4999180;28;20056;-92
2022/08/26 08:15:49;;;;;;;30.63;9.75;;;;;;;;;;4998370;28;20065;-93
2022/08/26 08:18:16;;;;;;;25.42;8.98;;;;;;;;;;4998721;28;20049;-92
2022/08/26 08:20:46;;;;;;;21.25;8.90;;;;;;;;;;4998725;28;20053;-92
2022/08/26 08:23:31;;;;;;;23.55;8.52;;;;;;;;;;5001038;28;20056;-91
2022/08/26 08:26:03;;;;;;;28.13;10.82;;;;;;;;;;4998257;28;20077;-93
2022/08/26 08:28:30;;;;;;;22.80;9.18;;;;;;;;;;4998960;28;20168;-91
2022/08/26 08:30:57;;;;;;;23.77;8.38;;;;;;;;;;4998175;28;20145;-89
2022/08/26 08:33:25;;;;;;;22.35;8.15;;;;;;;;;;4998937;28;20137;-91
2022/08/26 08:35:55;;;;;;;23.85;7.72;;;;;;;;;;4998649;28;20070;-92
2022/08/26 08:38:23;;;;;;;21.20;7.93;;;;;;;;;;4998135;28;20080;-92
2022/08/26 08:40:50;;;;;;;27.92;7.10;;;;;;;;;;4998014;28;20057;-91
2022/08/26 08:43:20;;;;;;;23.58;7.28;;;;;;;;;;4998477;28;20050;-91
2022/08/26 08:45:57;;;;;;;26.20;7.35;;;;;;;;;;4997989;28;20065;-91
2022/08/26 08:48:31;;;;;;;20.20;6.57;;;;;;;;;;4999008;28;20042;-93
2022/08/26 08:50:59;;;;;;;22.02;6.80;;;;;;;;;;4997840;28;20057;-92
2022/08/26 08:53:33;;;;;;;25.08;6.32;;;;;;;;;;4997961;28;20069;-91
2022/08/26 08:56:06;;;;;;;23.00;6.22;;;;;;;;;;4997302;28;20137;-91
2022/08/26 08:59:03;;;;;;;20.08;6.40;;;;;;;;;;4997339;28;20522;-91
2022/08/26 09:01:49;;;;;;;31.33;7.53;;;;;;;;;;4985635;28;20050;-91
2022/08/26 09:04:35;;;;;;;29.80;6.75;;;;;;;;;;4997719;28;20486;-89
2022/08/26 09:07:03;;;;;;;20.73;5.95;;;;;;;;;;4997533;28;20088;-90
2022/08/26 09:09:40;;;;;;;22.95;6.13;;;;;;;;;;4997967;28;20077;-92
2022/08/26 09:12:11;;;;;;;22.77;6.10;;;;;;;;;;4997464;28;20528;-90
2022/08/26 09:14:38;;;;;;;19.10;6.20;;;;;;;;;;4997377;28;20561;-90
2022/08/26 09:17:05;;;;;;;24.35;6.50;;;;;;;;;;4997458;28;20058;-91
2022/08/26 09:19:40;;;;;;;20.67;6.70;;;;;;;;;;4997535;28;20517;-92
2022/08/26 09:22:08;;;;;;;19.55;5.47;;;;;;;;;;4997425;28;20084;-92
2022/08/26 09:24:40;;;;;;;19.88;5.97;;;;;;;;;;4997234;28;20068;-90
2022/08/26 09:27:34;;;;;;;25.27;7.95;;;;;;;;;;4998247;28;20049;-92
2022/08/26 09:30:06;;;;;;;16.70;5.72;;;;;;;;;;4997404;28;20050;-90
2022/08/26 09:32:37;;;;;;;21.90;5.85;;;;;;;;;;4997714;28;20050;-89
2022/08/26 09:35:06;;;;;;;21.70;6.22;;;;;;;;;;4997199;28;20053;-89
2022/08/26 09:37:34;;;;;;;24.90;6.75;;;;;;;;;;4997527;28;20086;-93
2022/08/26 09:40:21;;;;;;;21.63;6.82;;;;;;;;;;4997055;28;20062;-88
2022/08/26 09:43:05;;;;;;;20.25;6.43;;;;;;;;;;4996847;28;20077;-91
2022/08/26 09:45:33;;;;;;;23.55;6.55;;;;;;;;;;4996720;28;20054;-92
2022/08/26 09:48:01;;;;;;;23.88;6.65;;;;;;;;;;4980911;28;20085;-89
2022/08/26 09:50:31;;;;;;;20.35;5.75;;;;;;;;;;5005936;28;20078;-88
2022/08/26 09:53:07;;;;;;;20.15;5.97;;;;;;;;;;4996880;28;20092;-90
2022/08/26 09:55:40;;;;;;;21.08;5.72;;;;;;;;;;4998053;28;20145;-91
2022/08/26 09:58:12;;;;;;;20.88;6.00;;;;;;;;;;4996914;28;20050;-89
2022/08/26 10:00:40;;;;;;;18.17;6.28;;;;;;;;;;4996677;28;20077;-90
2022/08/26 10:03:21;;;;;;;26.90;6.90;;;;;;;;;;4996829;28;20474;-88
2022/08/26 10:06:02;;;;;;;26.02;5.95;;;;;;;;;;4996548;28;20137;-92
2022/08/26 10:08:35;;;;;;;18.02;5.78;;;;;;;;;;4999521;28;20457;-90
2022/08/26 10:11:05;;;;;;;15.95;5.63;;;;;;;;;;5003109;28;20057;-90
2022/08/26 10:13:35;;;;;;;23.58;6.63;;;;;;;;;;5003380;28;20050;-91
2022/08/26 10:16:10;;;;;;;15.63;5.68;;;;;;;;;;5003283;28;20050;-91
2022/08/26 10:18:58;;;;;;;20.80;5.72;;;;;;;;;;5003340;28;20108;-91
2022/08/26 10:21:28;;;;;;;19.20;5.75;;;;;;;;;;5003138;28;20046;-91
2022/08/26 10:23:58;;;;;;;23.15;6.18;;;;;;;;;;5020305;28;20249;-91
2022/08/26 10:26:30;;;;;;;17.45;6.55;;;;;;;;;;5002714;28;20092;-94
2022/08/26 10:29:05;;;;;;;18.58;6.22;;;;;;;;;;5003214;28;20132;-92
2022/08/26 10:31:36;;;;;;;20.02;6.22;;;;;;;;;;5003142;28;20049;-93
2022/08/26 10:34:07;;;;;;;18.65;6.22;;;;;;;;;;5003396;28;20092;-93
2022/08/26 10:36:50;;;;;;;29.38;7.43;;;;;;;;;;5002926;28;20058;-91
2022/08/26 10:39:57;;;;;;;25.42;6.70;;;;;;;;;;5006064;28;20139;-92
2022/08/26 10:42:36;;;;;;;25.15;6.65;;;;;;;;;;5003271;28;20057;-92
2022/08/26 10:45:10;;;;;;;21.65;6.32;;;;;;;;;;5002816;28;20176;-92
2022/08/26 10:47:53;;;;;;;20.70;6.85;;;;;;;;;;5003543;28;20173;-92
2022/08/26 10:50:24;;;;;;;20.27;5.93;;;;;;;;;;5012926;28;20483;-93
2022/08/26 10:53:12;;;;;;;27.70;6.82;;;;;;;;;;5022535;28;20045;-94
2022/08/26 10:55:44;;;;;;;22.42;6.57;;;;;;;;;;5022711;28;20045;-92
2022/08/26 10:58:30;;;;;;;28.40;7.32;;;;;;;;;;5022652;28;20084;-92
2022/08/26 11:04:07;;;;;;;25.63;7.85;;;;;;;;;;5039855;28;20060;-93
2022/08/26 11:06:35;;;;;;;26.83;6.40;;;;;;;;;;5022571;28;20080;-93
2022/08/26 11:09:05;;;;;;;22.02;6.50;;;;;;;;;;5022427;28;20045;-93
2022/08/26 11:11:44;;;;;;;24.02;6.55;;;;;;;;;;5022215;28;20061;-93
2022/08/26 11:14:19;;;;;;;26.52;7.72;;;;;;;;;;5022358;28;20144;-94
2022/08/26 11:16:57;;;;;;;38.07;7.97;;;;;;;;;;5023793;28;20520;-92
2022/08/26 11:19:31;;;;;;;27.95;7.10;;;;;;;;;;5020704;28;20049;-93
2022/08/26 11:22:26;;;;;;;19.23;6.35;;;;;;;;;;5021863;28;20140;-92
2022/08/26 11:24:56;;;;;;;18.55;6.43;;;;;;;;;;5019179;28;20084;-93
2022/08/26 11:27:24;;;;;;;21.67;6.95;;;;;;;;;;5019193;28;20053;-93
2022/08/26 11:29:56;;;;;;;21.83;6.65;;;;;;;;;;5018999;28;20142;-93
2022/08/26 11:32:27;;;;;;;18.93;6.63;;;;;;;;;;5019104;28;20064;-93
2022/08/26 11:34:59;;;;;;;20.88;6.20;;;;;;;;;;5018821;28;20137;-92
2022/08/26 11:37:31;;;;;;;32.20;6.95;;;;;;;;;;5018930;28;20073;-92
2022/08/26 11:40:00;;;;;;;25.85;6.88;;;;;;;;;;5019268;28;20045;-93
2022/08/26 11:42:33;;;;;;;20.52;6.90;;;;;;;;;;5018989;28;20123;-92
2022/08/26 11:45:01;;;;;;;22.13;7.00;;;;;;;;;;5018980;28;20395;-93
2022/08/26 11:47:31;;;;;;;24.75;7.72;;;;;;;;;;5019418;28;20074;-92
2022/08/26 11:50:06;;;;;;;25.45;7.90;;;;;;;;;;5009753;28;20077;-92
2022/08/26 11:52:33;;;;;;;18.85;6.95;;;;;;;;;;4999025;28;20050;-93
2022/08/26 11:55:02;;;;;;;20.52;9.18;;;;;;;;;;4999189;28;20069;-92
2022/08/26 11:57:32;;;;;;;26.23;7.85;;;;;;;;;;4998811;28;20042;-92
2022/08/26 12:00:00;;;;;;;20.88;8.20;;;;;;;;;;4998879;28;20080;-92
2022/08/26 12:02:27;;;;;;;19.52;8.48;;;;;;;;;;4999114;28;20053;-92
2022/08/26 12:04:55;;;;;;;16.77;7.50;;;;;;;;;;4999007;28;20482;-93
2022/08/26 12:07:25;;;;;;;17.38;7.30;;;;;;;;;;4998464;28;20050;-93
2022/08/26 12:09:56;;;;;;;15.35;6.70;;;;;;;;;;4999021;28;20053;-92
2022/08/26 12:12:29;;;;;;;18.90;6.55;;;;;;;;;;4998901;28;20153;-92
2022/08/26 12:15:22;;;;;;;24.48;6.82;;;;;;;;;;4999118;28;20053;-92
2022/08/26 12:17:51;;;;;;;26.83;7.05;;;;;;;;;;4998673;28;20050;-93
2022/08/26 12:20:47;;;;;;;37.67;8.57;;;;;;;;;;4998938;28;20101;-92
2022/08/26 12:23:36;;;;;;;23.00;7.07;;;;;;;;;;4998676;28;20068;-92
2022/08/26 12:26:07;;;;;;;16.27;6.63;;;;;;;;;;4998135;28;20556;-92
2022/08/26 12:28:47;;;;;;;14.82;6.13;;;;;;;;;;4998463;28;20125;-92
2022/08/26 12:31:22;;;;;;;17.05;6.30;;;;;;;;;;4998244;28;20057;-92
2022/08/26 12:33:51;;;;;;;17.27;6.22;;;;;;;;;;4998518;28;20050;-92
2022/08/26 12:36:26;;;;;;;18.42;6.05;;;;;;;;;;4998332;28;20046;-90
2022/08/26 12:38:54;;;;;;;19.10;5.95;;;;;;;;;;4998415;28;20058;-91
2022/08/26 12:41:38;;;;;;;21.30;6.57;;;;;;;;;;4998380;28;20120;-91
2022/08/26 12:44:05;;;;;;;24.50;6.72;;;;;;;;;;4997872;28;20553;-90
2022/08/26 12:46:33;;;;;;;18.85;6.22;;;;;;;;;;4997843;28;20069;-91
2022/08/26 12:49:02;;;;;;;22.13;7.15;;;;;;;;;;4999610;28;20057;-92
2022/08/26 12:51:33;;;;;;;25.63;7.13;;;;;;;;;;5017676;28;20046;-91
2022/08/26 12:54:05;;;;;;;25.25;7.32;;;;;;;;;;5017501;28;20057;-90
2022/08/26 12:56:37;;;;;;;18.83;7.10;;;;;;;;;;5017537;28;20046;-89
2022/08/26 12:59:18;;;;;;;19.52;6.25;;;;;;;;;;5017366;28;20075;-89
2022/08/26 13:01:48;;;;;;;19.50;7.18;;;;;;;;;;5017121;28;20073;-91
2022/08/26 13:04:32;;;;;;;20.23;6.78;;;;;;;;;;5017281;28;20490;-90
2022/08/26 13:07:18;;;;;;;25.48;7.75;;;;;;;;;;5017129;28;20053;-92
2022/08/26 13:09:46;;;;;;;27.88;7.57;;;;;;;;;;5016963;28;20132;-89
2022/08/26 13:12:23;;;;;;;19.73;6.97;;;;;;;;;;5017004;28;20053;-92
2022/08/26 13:14:50;;;;;;;17.65;7.10;;;;;;;;;;5016755;28;20140;-91
2022/08/26 13:17:17;;;;;;;18.80;6.35;;;;;;;;;;5017027;28;20076;-90
2022/08/26 13:19:45;;;;;;;22.90;6.57;;;;;;;;;;5017178;28;20045;-92
2022/08/26 13:22:13;;;;;;;21.38;6.15;;;;;;;;;;5016751;28;20053;-91
2022/08/26 13:24:41;;;;;;;22.95;6.50;;;;;;;;;;5016839;28;20167;-89
2022/08/26 13:27:09;;;;;;;15.35;6.30;;;;;;;;;;5016835;28;20525;-90
2022/08/26 13:29:37;;;;;;;25.30;6.45;;;;;;;;;;5016717;28;20474;-88
2022/08/26 13:32:05;;;;;;;25.25;7.13;;;;;;;;;;5017027;28;20481;-89
2022/08/26 13:34:32;;;;;;;20.30;6.10;;;;;;;;;;5016555;28;20045;-89
2022/08/26 13:37:00;;;;;;;28.15;6.50;;;;;;;;;;5016808;28;20076;-92
2022/08/26 13:39:27;;;;;;;20.25;6.68;;;;;;;;;;5016437;28;20041;-90
2022/08/26 13:41:54;;;;;;;19.13;6.57;;;;;;;;;;5016497;28;20079;-89
2022/08/26 13:44:21;;;;;;;20.73;6.45;;;;;;;;;;5015820;28;20560;-88
2022/08/26 13:46:48;;;;;;;18.58;6.65;;;;;;;;;;5016618;28;20060;-89
2022/08/26 13:49:15;;;;;;;19.95;6.20;;;;;;;;;;5016156;28;20068;-89
2022/08/26 13:51:43;;;;;;;22.27;6.38;;;;;;;;;;5016107;28;20084;-91
2022/08/26 13:54:10;;;;;;;21.42;6.32;;;;;;;;;;5016413;28;20482;-89
2022/08/26 13:56:37;;;;;;;17.67;5.50;;;;;;;;;;5016201;28;20410;-90
2022/08/26 13:59:05;;;;;;;24.67;7.18;;;;;;;;;;5016631;28;20072;-91
2022/08/26 14:01:33;;;;;;;16.35;5.80;;;;;;;;;;5016565;28;20056;-91
2022/08/26 14:04:01;;;;;;;17.65;5.57;;;;;;;;;;5016158;28;20053;-91
2022/08/26 14:06:29;;;;;;;17.58;6.10;;;;;;;;;;5016081;28;20061;-93
2022/08/26 14:08:56;;;;;;;19.30;5.72;;;;;;;;;;5016260;28;20144;-87
2022/08/26 14:11:23;;;;;;;24.30;6.07;;;;;;;;;;5016216;28;20478;-88
2022/08/26 14:13:51;;;;;;;15.50;5.55;;;;;;;;;;5016308;28;20065;-89
2022/08/26 14:16:26;;;;;;;21.83;5.68;;;;;;;;;;5016368;28;20482;-90
2022/08/26 14:18:54;;;;;;;21.33;5.65;;;;;;;;;;5016024;28;20061;-89
2022/08/26 14:21:21;;;;;;;20.98;6.07;;;;;;;;;;5015840;28;20077;-92
2022/08/26 14:23:48;;;;;;;14.68;4.72;;;;;;;;;;5016148;28;20136;-89
2022/08/26 14:26:15;;;;;;;17.05;5.88;;;;;;;;;;5015901;28;20133;-89
2022/08/26 14:28:55;;;;;;;21.25;5.60;;;;;;;;;;5017849;28;20056;-89
2022/08/26 14:31:23;;;;;;;15.13;5.07;;;;;;;;;;5033422;28;20053;-89
2022/08/26 14:33:50;;;;;;;15.40;5.82;;;;;;;;;;5015693;28;20128;-89
2022/08/26 14:36:26;;;;;;;18.73;5.55;;;;;;;;;;5016111;28;20094;-90
2022/08/26 14:38:55;;;;;;;16.88;5.57;;;;;;;;;;5016098;28;20081;-89
2022/08/26 14:41:25;;;;;;;16.95;5.60;;;;;;;;;;5016014;28;20077;-88
2022/08/26 14:44:13;;;;;;;20.85;5.43;;;;;;;;;;5015762;28;20081;-87
2022/08/26 14:46:48;;;;;;;14.80;4.88;;;;;;;;;;5015863;28;20464;-90
2022/08/26 14:49:18;;;;;;;14.13;5.40;;;;;;;;;;5015906;28;20057;-90